sim
Sign-in with your pilot id or email,
or register
Callsign
Passwort

Schedule Details

Flight Number: OEC1024
Departure: Munich Airport (EDDM) at Time
Arrival: Istanbul Ataturk International Airport (LTBA) at Time
Route: ROTAX2N ROTAX UL603 LATLO DCT OBEDI DCT PODET DCT LAPOV DCT ETIDA/F370 M19 LETVA T72 RILEX/F370 L867 ENESU ENESU1B

Weather Information
Getting current METAR information for EDDM 010650Z 00000KT 0800 R08L/0400U R08R/0275N FG SCT001 06/05 Q1009 BECMG 1500 BCFG
Getting current METAR information for LTBA 010650Z 22006KT 190V250 CAVOK 20/10 Q1010 NOSIG RMK RWY23 22008KT

Schedule Frequency

Route Map